createdAt,value
2022-08-19T00:01:28.978Z,3.17
2022-08-19T00:04:02.380Z,3.53
2022-08-19T00:06:30.153Z,3.50
2022-08-19T00:08:59.208Z,3.35
2022-08-19T00:11:26.915Z,3.58
2022-08-19T00:13:56.341Z,3.13
2022-08-19T00:16:25.267Z,3.20
2022-08-19T00:18:57.269Z,3.35
2022-08-19T00:21:25.609Z,3.25
2022-08-19T00:23:52.406Z,3.17
2022-08-19T00:26:19.123Z,3.33
2022-08-19T00:28:45.919Z,3.25
2022-08-19T00:31:12.627Z,3.28
2022-08-19T00:33:39.450Z,3.15
2022-08-19T00:36:09.609Z,3.60
2022-08-19T00:38:38.321Z,3.30
2022-08-19T00:41:08.479Z,3.28
2022-08-19T00:43:35.386Z,3.40
2022-08-19T00:46:05.505Z,3.47
2022-08-19T00:48:34.536Z,2.97
2022-08-19T00:51:02.201Z,3.08
2022-08-19T00:53:30.568Z,3.10
2022-08-19T00:56:01.083Z,2.75
2022-08-19T00:58:31.782Z,2.90
2022-08-19T01:00:58.791Z,2.83
2022-08-19T01:03:25.605Z,3.22
2022-08-19T01:05:54.951Z,3.63
2022-08-19T01:08:22.214Z,2.93
2022-08-19T01:10:54.101Z,2.95
2022-08-19T01:13:23.799Z,3.17
2022-08-19T01:15:55.871Z,2.80
2022-08-19T01:18:23.592Z,3.15
2022-08-19T01:20:51.719Z,3.00
2022-08-19T01:23:19.484Z,3.30
2022-08-19T01:25:52.191Z,3.50
2022-08-19T01:28:34.244Z,2.80
2022-08-19T01:31:08.430Z,2.92
2022-08-19T01:33:35.332Z,3.47
2022-08-19T01:36:28.660Z,3.10
2022-08-19T01:38:55.809Z,3.30
2022-08-19T01:41:23.621Z,3.08
2022-08-19T01:44:17.094Z,3.25
2022-08-19T01:46:38.985Z,2.97
2022-08-19T01:49:06.976Z,3.00
2022-08-19T01:51:38.523Z,3.25
2022-08-19T01:54:08.027Z,2.92
2022-08-19T01:56:34.853Z,3.15
2022-08-19T01:59:06.489Z,3.20
2022-08-19T02:01:33.590Z,3.38
2022-08-19T02:04:01.695Z,3.05
2022-08-19T02:06:29.764Z,3.05
2022-08-19T02:08:57.418Z,3.28
2022-08-19T02:11:32.279Z,3.22
2022-08-19T02:14:00.952Z,2.80
2022-08-19T02:16:27.750Z,2.75
2022-08-19T02:18:54.506Z,2.90
2022-08-19T02:21:23.168Z,3.13
2022-08-19T02:23:51.315Z,2.90
2022-08-19T02:26:19.135Z,3.30
2022-08-19T02:28:46.114Z,3.22
2022-08-19T02:31:20.535Z,2.92
2022-08-19T02:33:48.241Z,3.00
2022-08-19T02:36:20.680Z,3.20
2022-08-19T02:38:54.412Z,3.10
2022-08-19T02:41:27.009Z,2.80
2022-08-19T02:44:28.859Z,3.20
2022-08-19T02:46:41.987Z,2.92
2022-08-19T02:49:09.212Z,3.00
2022-08-19T02:51:41.407Z,2.97
2022-08-19T02:54:09.184Z,3.00
2022-08-19T02:56:37.578Z,3.45
2022-08-19T02:59:11.925Z,2.60
2022-08-19T03:01:41.487Z,3.00
2022-08-19T03:04:10.668Z,2.80
2022-08-19T03:06:39.266Z,2.83
2022-08-19T03:09:06.074Z,2.60
2022-08-19T03:11:33.931Z,2.90
2022-08-19T03:14:02.851Z,3.25
2022-08-19T03:16:33.573Z,3.05
2022-08-19T03:19:01.275Z,3.47
2022-08-19T03:21:30.659Z,3.50
2022-08-19T03:23:59.702Z,3.27
2022-08-19T03:26:26.677Z,3.30
2022-08-19T03:28:58.326Z,3.80
2022-08-19T03:31:45.077Z,3.85
2022-08-19T03:34:18.609Z,3.95
2022-08-19T03:36:45.753Z,3.83
2022-08-19T03:39:12.534Z,3.92
2022-08-19T03:41:44.540Z,3.85
2022-08-19T03:44:16.769Z,3.55
2022-08-19T03:46:45.505Z,3.95
2022-08-19T03:49:14.401Z,3.75
2022-08-19T03:51:42.755Z,4.05
2022-08-19T03:54:13.763Z,4.15
2022-08-19T03:56:42.316Z,4.00
2022-08-19T03:59:11.692Z,3.88
2022-08-19T04:01:38.644Z,3.90
2022-08-19T04:04:05.970Z,4.35
2022-08-19T04:06:36.185Z,4.30
2022-08-19T04:09:10.395Z,4.10
2022-08-19T04:11:44.496Z,4.40
2022-08-19T04:14:15.065Z,4.50
2022-08-19T04:19:08.910Z,5.10
2022-08-19T04:21:35.813Z,5.30
2022-08-19T04:24:03.897Z,5.07
2022-08-19T04:26:34.828Z,5.20
2022-08-19T04:29:09.199Z,5.50
2022-08-19T04:31:39.822Z,5.32
2022-08-19T04:34:09.335Z,5.45
2022-08-19T04:36:37.822Z,5.25
2022-08-19T04:39:08.514Z,5.60
2022-08-19T04:41:54.062Z,5.72
2022-08-19T04:44:21.358Z,5.07
2022-08-19T04:46:51.188Z,5.90
2022-08-19T04:49:22.760Z,6.10
2022-08-19T04:51:51.177Z,7.65
2022-08-19T04:54:37.673Z,6.80
2022-08-19T04:57:08.445Z,6.18
2022-08-19T04:59:35.901Z,6.50
2022-08-19T05:02:02.773Z,6.85
2022-08-19T05:04:32.698Z,6.68
2022-08-19T05:07:01.210Z,6.82
2022-08-19T05:09:55.716Z,5.80
2022-08-19T05:12:16.527Z,6.53
2022-08-19T05:14:44.167Z,6.70
2022-08-19T05:17:27.151Z,6.53
2022-08-19T05:20:13.713Z,5.68
2022-08-19T05:22:41.439Z,6.85
2022-08-19T05:25:14.864Z,6.07
2022-08-19T05:27:43.078Z,6.15
2022-08-19T05:30:11.804Z,6.20
2022-08-19T05:32:39.878Z,6.05
2022-08-19T05:35:07.405Z,6.13
2022-08-19T05:37:34.153Z,6.30
2022-08-19T05:40:00.893Z,6.53
2022-08-19T05:42:27.634Z,6.20
2022-08-19T05:44:54.900Z,5.95
2022-08-19T05:47:22.207Z,6.97
2022-08-19T05:49:51.065Z,6.18
2022-08-19T05:52:19.037Z,7.97
2022-08-19T05:54:51.422Z,7.50
2022-08-19T05:57:19.503Z,8.38
2022-08-19T05:59:53.204Z,11.25
2022-08-19T06:02:29.207Z,10.35
2022-08-19T06:04:55.978Z,11.50
2022-08-19T06:07:23.120Z,11.68
2022-08-19T06:09:59.160Z,13.27
2022-08-19T06:12:29.641Z,14.75
2022-08-19T06:15:01.251Z,15.27
2022-08-19T06:17:31.211Z,15.57
2022-08-19T06:19:59.452Z,18.10
2022-08-19T06:22:27.016Z,18.23
2022-08-19T06:24:55.036Z,18.67
2022-08-19T06:27:22.964Z,20.42
2022-08-19T06:29:50.065Z,18.40
2022-08-19T06:32:19.535Z,18.60
2022-08-19T06:34:46.515Z,20.30
2022-08-19T06:37:13.359Z,19.65
2022-08-19T06:39:42.001Z,18.65
2022-08-19T06:42:12.307Z,20.48
2022-08-19T06:47:24.008Z,22.90
2022-08-19T06:50:05.409Z,26.20
2022-08-19T06:52:36.415Z,27.52
2022-08-19T06:55:06.251Z,28.75
2022-08-19T06:57:34.479Z,32.17
2022-08-19T07:00:01.528Z,34.08
2022-08-19T07:02:28.217Z,35.30
2022-08-19T07:04:56.701Z,34.53
2022-08-19T07:07:24.555Z,34.95
2022-08-19T07:10:00.060Z,33.65
2022-08-19T07:12:32.311Z,35.20
2022-08-19T07:14:59.429Z,34.30
2022-08-19T07:17:26.897Z,34.75
2022-08-19T07:19:54.464Z,31.45
2022-08-19T07:22:23.845Z,30.63
2022-08-19T07:24:52.035Z,31.13
2022-08-19T07:27:24.411Z,30.05
2022-08-19T07:29:55.719Z,29.73
2022-08-19T07:32:23.161Z,30.52
2022-08-19T07:34:49.893Z,29.13
2022-08-19T07:37:17.324Z,29.92
2022-08-19T07:39:44.133Z,29.25
2022-08-19T07:42:13.484Z,27.85
2022-08-19T07:47:48.734Z,25.52
2022-08-19T07:50:05.487Z,26.52
2022-08-19T07:52:37.192Z,26.58
2022-08-19T07:55:05.682Z,26.02
2022-08-19T07:57:32.426Z,26.58
2022-08-19T07:59:59.856Z,25.42
2022-08-19T08:02:26.648Z,24.40
2022-08-19T08:05:12.042Z,25.10
2022-08-19T08:07:59.023Z,24.15
2022-08-19T08:10:26.566Z,24.60
2022-08-19T08:13:08.764Z,25.10
2022-08-19T08:15:43.169Z,23.92
2022-08-19T08:18:11.927Z,23.05
2022-08-19T08:20:39.630Z,22.70
2022-08-19T08:23:26.598Z,22.33
2022-08-19T08:25:57.876Z,21.90
2022-08-19T08:28:26.292Z,20.70
2022-08-19T08:30:57.127Z,21.50
2022-08-19T08:33:33.657Z,22.30
2022-08-19T08:36:08.648Z,22.60
2022-08-19T08:38:41.301Z,22.45
2022-08-19T08:41:29.395Z,22.20
2022-08-19T08:43:58.226Z,21.17
2022-08-19T08:46:42.832Z,23.30
2022-08-19T08:49:41.355Z,21.85
2022-08-19T08:52:31.941Z,19.67
2022-08-19T08:55:04.228Z,19.92
2022-08-19T08:57:54.496Z,20.88
2022-08-19T09:00:41.278Z,20.35
2022-08-19T09:03:23.413Z,18.13
2022-08-19T09:06:11.851Z,18.60
2022-08-19T09:09:00.559Z,17.33
2022-08-19T09:11:42.411Z,17.17
2022-08-19T09:14:47.392Z,16.83
2022-08-19T09:17:10.671Z,17.77
2022-08-19T09:19:49.461Z,17.98
2022-08-19T09:22:22.885Z,17.52
2022-08-19T09:24:54.172Z,16.95
2022-08-19T09:27:41.768Z,17.05
2022-08-19T09:30:14.712Z,17.73
2022-08-19T09:32:44.485Z,17.60
2022-08-19T09:35:12.086Z,17.98
2022-08-19T09:37:39.297Z,18.20
2022-08-19T09:40:08.224Z,18.60
2022-08-19T09:42:38.778Z,19.58
2022-08-19T09:45:18.932Z,18.38
2022-08-19T09:47:45.700Z,17.60
2022-08-19T09:50:16.476Z,19.02
2022-08-19T09:52:55.409Z,19.02
2022-08-19T09:55:31.639Z,19.35
2022-08-19T09:58:01.890Z,18.83
2022-08-19T10:00:29.003Z,18.67
2022-08-19T10:02:55.725Z,19.80
2022-08-19T10:05:42.480Z,20.77
2022-08-19T10:08:13.838Z,22.15
2022-08-19T10:10:47.191Z,23.40
2022-08-19T10:13:16.633Z,22.35
2022-08-19T10:15:45.234Z,25.35
2022-08-19T10:18:15.586Z,25.00
2022-08-19T10:20:43.285Z,25.77
2022-08-19T10:23:10.554Z,26.13
2022-08-19T10:25:38.411Z,26.05
2022-08-19T10:28:10.693Z,26.85
2022-08-19T10:30:38.343Z,28.55
2022-08-19T10:33:10.804Z,27.67
2022-08-19T10:35:57.120Z,27.60
2022-08-19T10:38:31.547Z,26.80
2022-08-19T10:40:59.320Z,26.77
2022-08-19T10:43:26.114Z,26.38
2022-08-19T10:45:56.956Z,26.63
2022-08-19T10:48:23.708Z,26.77
2022-08-19T10:51:08.905Z,27.42
2022-08-19T10:53:35.624Z,27.40
2022-08-19T10:56:21.361Z,30.05
2022-08-19T10:58:49.333Z,27.27
2022-08-19T11:01:16.142Z,26.35
2022-08-19T11:03:43.029Z,28.05
2022-08-19T11:06:10.011Z,27.55
2022-08-19T11:08:38.727Z,26.17
2022-08-19T11:11:07.543Z,25.65
2022-08-19T11:13:37.710Z,26.10
2022-08-19T11:16:14.831Z,26.48
2022-08-19T11:18:47.794Z,24.90
2022-08-19T11:21:23.241Z,25.67
2022-08-19T11:23:52.096Z,25.80
2022-08-19T11:26:20.219Z,26.48
2022-08-19T11:28:47.766Z,24.98
2022-08-19T11:31:18.704Z,25.20
2022-08-19T11:33:47.700Z,24.58
2022-08-19T11:36:15.364Z,24.90
2022-08-19T11:38:42.655Z,25.42
2022-08-19T11:41:09.513Z,23.20
2022-08-19T11:43:37.631Z,23.80
2022-08-19T11:46:09.402Z,25.40
2022-08-19T11:48:36.495Z,25.48
2022-08-19T11:51:10.478Z,25.45
2022-08-19T11:53:38.414Z,23.98
2022-08-19T11:56:09.027Z,27.55
2022-08-19T11:58:36.368Z,25.83
2022-08-19T12:01:07.760Z,24.58
2022-08-19T12:03:35.151Z,24.83
2022-08-19T12:06:10.525Z,24.23
2022-08-19T12:08:37.421Z,22.65
2022-08-19T12:11:04.177Z,21.25
2022-08-19T12:13:31.465Z,21.35
2022-08-19T12:15:59.319Z,20.88
2022-08-19T12:18:26.186Z,20.70
2022-08-19T12:20:55.567Z,19.73
2022-08-19T12:23:22.256Z,18.38
2022-08-19T12:25:53.106Z,17.10
2022-08-19T12:28:25.010Z,19.10
2022-08-19T12:30:52.280Z,17.40
2022-08-19T12:33:25.542Z,17.17
2022-08-19T12:35:52.868Z,18.08
2022-08-19T12:38:19.566Z,16.20
2022-08-19T12:40:47.859Z,14.63
2022-08-19T12:43:16.585Z,13.50
2022-08-19T12:45:44.564Z,11.68
2022-08-19T12:48:33.615Z,10.38
2022-08-19T12:51:02.839Z,9.88
2022-08-19T12:53:29.955Z,10.32
2022-08-19T12:55:58.302Z,10.20
2022-08-19T12:58:27.313Z,8.95
2022-08-19T13:00:54.521Z,9.02
2022-08-19T13:03:23.320Z,9.02
2022-08-19T13:05:52.027Z,9.10
2022-08-19T13:08:18.786Z,10.00
2022-08-19T13:10:45.551Z,10.55
2022-08-19T13:13:12.409Z,11.23
2022-08-19T13:15:42.287Z,11.35
2022-08-19T13:18:11.284Z,11.25
2022-08-19T13:20:38.556Z,12.18
2022-08-19T13:23:05.668Z,12.13
2022-08-19T13:25:32.494Z,10.93
2022-08-19T13:28:00.005Z,10.60
2022-08-19T13:30:45.324Z,12.50
2022-08-19T13:33:12.040Z,12.68
2022-08-19T13:35:44.926Z,10.20
2022-08-19T13:38:12.253Z,9.63
2022-08-19T13:40:41.251Z,9.85
2022-08-19T13:43:23.104Z,9.90
2022-08-19T13:45:56.970Z,9.18
2022-08-19T13:48:27.237Z,7.82
2022-08-19T13:50:55.132Z,7.05
2022-08-19T13:53:21.873Z,7.00
2022-08-19T13:55:48.673Z,7.07
2022-08-19T13:58:15.523Z,6.97
2022-08-19T14:00:45.437Z,6.85
2022-08-19T14:03:12.384Z,6.90
2022-08-19T14:05:39.530Z,7.03
2022-08-19T14:08:06.371Z,7.85
2022-08-19T14:10:34.223Z,6.90
2022-08-19T14:13:04.314Z,6.53
2022-08-19T14:17:58.554Z,7.32
2022-08-19T14:20:25.873Z,6.20
2022-08-19T14:22:54.523Z,6.53
2022-08-19T14:25:27.453Z,6.28
2022-08-19T14:27:54.760Z,6.15
2022-08-19T14:30:28.526Z,5.80
2022-08-19T14:32:57.393Z,5.43
2022-08-19T14:35:24.585Z,5.35
2022-08-19T14:37:56.257Z,5.65
2022-08-19T14:40:26.863Z,5.53
2022-08-19T14:43:00.438Z,5.28
2022-08-19T14:45:31.605Z,5.28
2022-08-19T14:48:00.925Z,5.68
2022-08-19T14:50:28.410Z,5.38
2022-08-19T14:53:11.865Z,5.10
2022-08-19T14:55:45.137Z,5.20
2022-08-19T14:58:29.804Z,5.68
2022-08-19T15:00:58.403Z,6.30
2022-08-19T15:03:25.159Z,5.50
2022-08-19T15:05:51.892Z,5.18
2022-08-19T15:08:18.651Z,5.60
2022-08-19T15:10:46.796Z,4.93
2022-08-19T15:13:13.494Z,5.25
2022-08-19T15:15:40.490Z,5.47
2022-08-19T15:18:07.162Z,5.85
2022-08-19T15:20:33.913Z,6.07
2022-08-19T15:23:01.276Z,5.32
2022-08-19T15:25:28.674Z,6.05
2022-08-19T15:27:55.761Z,6.13
2022-08-19T15:30:28.018Z,6.50
2022-08-19T15:32:57.195Z,6.38
2022-08-19T15:35:24.562Z,6.83
2022-08-19T15:37:53.047Z,7.18
2022-08-19T15:40:21.110Z,6.60
2022-08-19T15:42:49.725Z,7.03
2022-08-19T15:45:18.909Z,7.55
2022-08-19T15:47:45.846Z,7.07
2022-08-19T15:50:21.189Z,7.32
2022-08-19T15:52:50.657Z,6.90
2022-08-19T15:55:31.316Z,7.60
2022-08-19T15:58:28.435Z,8.25
2022-08-19T16:01:16.436Z,9.13
2022-08-19T16:04:04.250Z,8.52
2022-08-19T16:06:32.605Z,8.27
2022-08-19T16:09:03.992Z,7.63
2022-08-19T16:11:39.390Z,6.97
2022-08-19T16:14:09.426Z,5.72
2022-08-19T16:16:38.348Z,5.45
2022-08-19T16:19:11.820Z,4.85
2022-08-19T16:21:41.905Z,5.70
2022-08-19T16:24:10.510Z,5.53
2022-08-19T16:26:37.248Z,5.85
2022-08-19T16:29:09.052Z,5.50
2022-08-19T16:31:39.868Z,5.30
2022-08-19T16:34:06.965Z,5.75
2022-08-19T16:36:33.845Z,5.03
2022-08-19T16:39:01.245Z,5.70
2022-08-19T16:41:28.743Z,7.70
2022-08-19T16:43:55.763Z,8.98
2022-08-19T16:46:26.898Z,8.77
2022-08-19T16:48:54.451Z,8.30
2022-08-19T16:51:22.778Z,8.43
2022-08-19T16:53:52.596Z,7.65
2022-08-19T16:56:20.115Z,7.47
2022-08-19T16:58:47.695Z,8.23
2022-08-19T17:01:14.781Z,7.55
2022-08-19T17:03:41.650Z,6.82
2022-08-19T17:06:29.651Z,6.88
2022-08-19T17:08:59.485Z,6.82
2022-08-19T17:11:28.589Z,7.45
2022-08-19T17:13:58.429Z,6.87
2022-08-19T17:16:27.670Z,8.00
2022-08-19T17:18:57.322Z,6.88
2022-08-19T17:21:29.852Z,7.28
2022-08-19T17:23:58.032Z,7.13
2022-08-19T17:26:25.615Z,7.15
2022-08-19T17:28:54.116Z,6.70
2022-08-19T17:31:23.641Z,7.38
2022-08-19T17:33:51.110Z,7.38
2022-08-19T17:36:26.328Z,7.60
2022-08-19T17:38:55.398Z,8.20
2022-08-19T17:41:24.132Z,7.72
2022-08-19T17:43:51.481Z,7.60
2022-08-19T17:46:19.533Z,7.85
2022-08-19T17:48:53.115Z,8.38
2022-08-19T17:51:34.962Z,9.02
2022-08-19T17:54:04.326Z,7.50
2022-08-19T17:56:30.984Z,4.95
2022-08-19T17:59:00.659Z,3.92
2022-08-19T18:01:34.703Z,3.10
2022-08-19T18:04:17.186Z,2.70
2022-08-19T18:06:46.554Z,2.33
2022-08-19T18:09:25.075Z,2.72
2022-08-19T18:11:53.801Z,2.45
2022-08-19T18:14:32.110Z,2.33
2022-08-19T18:17:06.301Z,2.67
2022-08-19T18:19:40.986Z,2.88
2022-08-19T18:22:08.534Z,2.70
2022-08-19T18:24:39.346Z,2.97
2022-08-19T18:27:06.988Z,3.03
2022-08-19T18:29:34.137Z,3.10
2022-08-19T18:32:00.812Z,2.75
2022-08-19T18:34:28.316Z,2.88
2022-08-19T18:36:55.134Z,3.03
2022-08-19T18:39:44.139Z,3.30
2022-08-19T18:42:35.147Z,3.20
2022-08-19T18:45:20.977Z,3.25
2022-08-19T18:48:18.443Z,2.70
2022-08-19T18:50:53.336Z,3.17
2022-08-19T18:53:20.095Z,3.13
2022-08-19T18:55:49.406Z,3.30
2022-08-19T18:58:16.129Z,3.10
2022-08-19T19:00:43.948Z,3.25
2022-08-19T19:03:11.618Z,3.17
2022-08-19T19:05:39.823Z,3.05
2022-08-19T19:08:07.412Z,3.45
2022-08-19T19:10:36.152Z,3.58
2022-08-19T19:13:02.964Z,3.13
2022-08-19T19:15:29.646Z,3.53
2022-08-19T19:17:56.585Z,3.58
2022-08-19T19:20:36.500Z,4.03
2022-08-19T19:23:04.155Z,3.53
2022-08-19T19:25:50.130Z,3.95
2022-08-19T19:28:28.015Z,3.60
2022-08-19T19:30:59.767Z,3.10
2022-08-19T19:33:27.550Z,3.30
2022-08-19T19:35:54.350Z,3.80
2022-08-19T19:38:21.089Z,3.63
2022-08-19T19:40:47.813Z,3.50
2022-08-19T19:43:17.107Z,3.83
2022-08-19T19:45:44.375Z,3.90
2022-08-19T19:48:13.462Z,4.43
2022-08-19T19:50:40.264Z,4.55
2022-08-19T19:53:06.985Z,4.30
2022-08-19T19:55:33.685Z,4.32
2022-08-19T19:58:00.394Z,4.00
2022-08-19T20:00:27.120Z,3.75
2022-08-19T20:02:55.841Z,4.10
2022-08-19T20:05:23.095Z,3.80
2022-08-19T20:08:09.597Z,3.85
2022-08-19T20:10:36.934Z,4.10
2022-08-19T20:13:04.492Z,4.03
2022-08-19T20:15:32.200Z,3.92
2022-08-19T20:17:59.923Z,4.25
2022-08-19T20:20:26.942Z,4.53
2022-08-19T20:22:54.018Z,4.97
2022-08-19T20:25:22.203Z,4.97
2022-08-19T20:27:49.707Z,5.25
2022-08-19T20:30:19.836Z,5.20
2022-08-19T20:35:15.852Z,5.60
2022-08-19T20:37:42.961Z,5.43
2022-08-19T20:40:10.593Z,5.30
2022-08-19T20:42:40.461Z,5.35
2022-08-19T20:45:21.594Z,5.50
2022-08-19T20:47:58.922Z,5.53
2022-08-19T20:50:26.258Z,5.72
2022-08-19T20:52:57.118Z,6.60
2022-08-19T20:55:23.829Z,6.30
2022-08-19T20:57:51.564Z,6.18
2022-08-19T21:00:18.901Z,5.50
2022-08-19T21:02:46.839Z,6.43
2022-08-19T21:05:13.818Z,6.80
2022-08-19T21:07:40.792Z,5.95
2022-08-19T21:10:08.113Z,6.90
2022-08-19T21:12:35.437Z,7.35
2022-08-19T21:15:02.325Z,6.75
2022-08-19T21:17:29.003Z,7.18
2022-08-19T21:19:55.749Z,6.63
2022-08-19T21:22:22.465Z,6.68
2022-08-19T21:24:49.130Z,6.40
2022-08-19T21:27:15.874Z,5.43
2022-08-19T21:29:43.017Z,5.35
2022-08-19T21:32:14.375Z,5.60
2022-08-19T21:34:42.734Z,5.82
2022-08-19T21:37:19.926Z,6.50
2022-08-19T21:39:52.849Z,6.65
2022-08-19T21:42:19.965Z,7.05
2022-08-19T21:44:46.622Z,6.82
2022-08-19T21:47:13.494Z,7.22
2022-08-19T21:49:40.174Z,6.43
2022-08-19T21:52:07.227Z,7.25
2022-08-19T21:54:38.002Z,7.03
2022-08-19T21:57:07.017Z,7.35
2022-08-19T21:59:36.955Z,7.50
2022-08-19T22:02:19.025Z,7.78
2022-08-19T22:04:47.069Z,7.38
2022-08-19T22:07:14.635Z,7.75
2022-08-19T22:09:43.401Z,7.95
2022-08-19T22:12:23.201Z,8.05
2022-08-19T22:14:51.739Z,8.23
2022-08-19T22:17:19.682Z,7.72
2022-08-19T22:19:46.664Z,8.15
2022-08-19T22:22:13.564Z,8.38
2022-08-19T22:24:40.330Z,8.35
2022-08-19T22:27:08.671Z,8.15
2022-08-19T22:29:36.503Z,9.27
2022-08-19T22:32:26.360Z,7.95
2022-08-19T22:34:51.768Z,8.00
2022-08-19T22:37:18.799Z,8.45
2022-08-19T22:39:45.770Z,9.40
2022-08-19T22:42:12.745Z,8.18
2022-08-19T22:44:40.409Z,7.65
2022-08-19T22:47:07.105Z,7.80
2022-08-19T22:49:33.810Z,7.32
2022-08-19T22:52:17.622Z,6.78
2022-08-19T22:54:50.882Z,6.45
2022-08-19T22:57:19.576Z,7.15
2022-08-19T22:59:51.212Z,6.90
2022-08-19T23:02:34.469Z,7.20
2022-08-19T23:05:03.561Z,7.60
2022-08-19T23:07:30.343Z,7.45
2022-08-19T23:09:57.079Z,7.40
2022-08-19T23:12:33.090Z,6.35
2022-08-19T23:15:10.572Z,6.70
2022-08-19T23:17:38.053Z,7.32
2022-08-19T23:20:06.437Z,6.78
2022-08-19T23:22:33.397Z,7.55
2022-08-19T23:25:13.054Z,6.80
2022-08-19T23:27:58.372Z,7.15
2022-08-19T23:30:28.070Z,6.95
2022-08-19T23:32:57.226Z,6.68
2022-08-19T23:35:24.889Z,7.65
2022-08-19T23:37:52.211Z,7.70
2022-08-19T23:40:21.555Z,7.97
2022-08-19T23:42:50.082Z,7.63
2022-08-19T23:45:22.922Z,7.90
2022-08-19T23:47:51.158Z,8.40
2022-08-19T23:50:21.061Z,8.98
2022-08-19T23:52:54.219Z,9.45
2022-08-19T23:55:26.885Z,8.32
2022-08-19T23:57:54.409Z,9.93
